sensor_id;sensor_type;location;lat;lon;timestamp;P1;durP1;ratioP1;P2;durP2;ratioP2
58685;SDS011;44465;53.206;-6.106;2023-12-14T00:01:38;5.55;;;2.40;;
58685;SDS011;44465;53.206;-6.106;2023-12-14T00:04:05;3.10;;;2.60;;
58685;SDS011;44465;53.206;-6.106;2023-12-14T00:06:31;6.55;;;2.85;;
58685;SDS011;44465;53.206;-6.106;2023-12-14T00:08:56;5.03;;;2.88;;
58685;SDS011;44465;53.206;-6.106;2023-12-14T00:11:22;5.00;;;2.38;;
58685;SDS011;44465;53.206;-6.106;2023-12-14T00:13:47;4.82;;;2.30;;
58685;SDS011;44465;53.206;-6.106;2023-12-14T00:16:13;3.47;;;2.40;;
58685;SDS011;44465;53.206;-6.106;2023-12-14T00:18:38;3.70;;;2.40;;
58685;SDS011;44465;53.206;-6.106;2023-12-14T00:21:04;3.03;;;2.00;;
58685;SDS011;44465;53.206;-6.106;2023-12-14T00:23:29;3.00;;;1.92;;
58685;SDS011;44465;53.206;-6.106;2023-12-14T00:25:55;4.15;;;1.90;;
58685;SDS011;44465;53.206;-6.106;2023-12-14T00:28:21;3.45;;;2.33;;
58685;SDS011;44465;53.206;-6.106;2023-12-14T00:30:47;2.97;;;2.30;;
58685;SDS011;44465;53.206;-6.106;2023-12-14T00:33:13;4.00;;;1.83;;
58685;SDS011;44465;53.206;-6.106;2023-12-14T00:35:38;6.43;;;2.40;;
58685;SDS011;44465;53.206;-6.106;2023-12-14T00:38:04;3.17;;;2.10;;
58685;SDS011;44465;53.206;-6.106;2023-12-14T00:40:29;2.35;;;1.80;;
58685;SDS011;44465;53.206;-6.106;2023-12-14T00:42:55;2.67;;;1.90;;
58685;SDS011;44465;53.206;-6.106;2023-12-14T00:45:20;4.65;;;1.73;;
58685;SDS011;44465;53.206;-6.106;2023-12-14T00:47:46;4.63;;;1.92;;
58685;SDS011;44465;53.206;-6.106;2023-12-14T00:50:11;3.38;;;2.10;;
58685;SDS011;44465;53.206;-6.106;2023-12-14T00:52:37;1.90;;;1.70;;
58685;SDS011;44465;53.206;-6.106;2023-12-14T00:55:02;2.75;;;1.52;;
58685;SDS011;44465;53.206;-6.106;2023-12-14T00:57:28;1.77;;;1.67;;
58685;SDS011;44465;53.206;-6.106;2023-12-14T00:59:53;2.38;;;1.58;;
58685;SDS011;44465;53.206;-6.106;2023-12-14T01:02:19;2.47;;;1.60;;
58685;SDS011;44465;53.206;-6.106;2023-12-14T01:04:44;4.00;;;1.70;;
58685;SDS011;44465;53.206;-6.106;2023-12-14T01:07:10;2.20;;;1.67;;
58685;SDS011;44465;53.206;-6.106;2023-12-14T01:09:35;2.03;;;1.60;;
58685;SDS011;44465;53.206;-6.106;2023-12-14T01:12:01;2.33;;;1.70;;
58685;SDS011;44465;53.206;-6.106;2023-12-14T01:14:26;4.60;;;2.25;;
58685;SDS011;44465;53.206;-6.106;2023-12-14T01:16:52;2.95;;;2.00;;
58685;SDS011;44465;53.206;-6.106;2023-12-14T01:19:17;2.72;;;1.67;;
58685;SDS011;44465;53.206;-6.106;2023-12-14T01:21:43;2.30;;;1.42;;
58685;SDS011;44465;53.206;-6.106;2023-12-14T01:24:08;2.38;;;1.58;;
58685;SDS011;44465;53.206;-6.106;2023-12-14T01:26:34;1.75;;;1.63;;
58685;SDS011;44465;53.206;-6.106;2023-12-14T01:28:59;2.40;;;1.52;;
58685;SDS011;44465;53.206;-6.106;2023-12-14T01:31:25;1.73;;;1.63;;
58685;SDS011;44465;53.206;-6.106;2023-12-14T01:33:51;1.52;;;1.40;;
58685;SDS011;44465;53.206;-6.106;2023-12-14T01:36:23;1.95;;;1.50;;
58685;SDS011;44465;53.206;-6.106;2023-12-14T01:38:50;1.38;;;1.27;;
58685;SDS011;44465;53.206;-6.106;2023-12-14T01:41:16;2.25;;;1.45;;
58685;SDS011;44465;53.206;-6.106;2023-12-14T01:43:42;2.28;;;1.50;;
58685;SDS011;44465;53.206;-6.106;2023-12-14T01:46:07;1.95;;;1.20;;
58685;SDS011;44465;53.206;-6.106;2023-12-14T01:48:33;1.90;;;1.35;;
58685;SDS011;44465;53.206;-6.106;2023-12-14T01:50:58;1.30;;;1.20;;
58685;SDS011;44465;53.206;-6.106;2023-12-14T01:53:24;1.58;;;1.42;;
58685;SDS011;44465;53.206;-6.106;2023-12-14T01:55:50;1.05;;;1.05;;
58685;SDS011;44465;53.206;-6.106;2023-12-14T01:58:15;2.78;;;1.30;;
58685;SDS011;44465;53.206;-6.106;2023-12-14T02:03:16;1.88;;;1.40;;
58685;SDS011;44465;53.206;-6.106;2023-12-14T02:05:41;1.60;;;1.13;;
58685;SDS011;44465;53.206;-6.106;2023-12-14T02:08:07;2.00;;;1.30;;
58685;SDS011;44465;53.206;-6.106;2023-12-14T02:10:33;1.40;;;1.30;;
58685;SDS011;44465;53.206;-6.106;2023-12-14T02:13:01;1.85;;;1.33;;
58685;SDS011;44465;53.206;-6.106;2023-12-14T02:15:27;1.27;;;1.10;;
58685;SDS011;44465;53.206;-6.106;2023-12-14T02:17:53;1.42;;;1.10;;
58685;SDS011;44465;53.206;-6.106;2023-12-14T02:20:18;1.20;;;1.00;;
58685;SDS011;44465;53.206;-6.106;2023-12-14T02:22:53;1.85;;;1.00;;
58685;SDS011;44465;53.206;-6.106;2023-12-14T02:25:19;0.90;;;0.90;;
58685;SDS011;44465;53.206;-6.106;2023-12-14T02:27:46;0.85;;;0.85;;
58685;SDS011;44465;53.206;-6.106;2023-12-14T02:30:12;1.50;;;1.17;;
58685;SDS011;44465;53.206;-6.106;2023-12-14T02:32:39;1.08;;;1.08;;
58685;SDS011;44465;53.206;-6.106;2023-12-14T02:35:05;1.10;;;1.00;;
58685;SDS011;44465;53.206;-6.106;2023-12-14T02:37:32;1.27;;;1.17;;
58685;SDS011;44465;53.206;-6.106;2023-12-14T02:39:58;1.73;;;1.17;;
58685;SDS011;44465;53.206;-6.106;2023-12-14T02:42:24;0.98;;;0.93;;
58685;SDS011;44465;53.206;-6.106;2023-12-14T02:44:50;0.88;;;0.70;;
58685;SDS011;44465;53.206;-6.106;2023-12-14T02:47:15;1.65;;;0.90;;
58685;SDS011;44465;53.206;-6.106;2023-12-14T02:49:41;0.77;;;0.77;;
58685;SDS011;44465;53.206;-6.106;2023-12-14T02:52:07;1.42;;;0.90;;
58685;SDS011;44465;53.206;-6.106;2023-12-14T02:54:33;0.80;;;0.80;;
58685;SDS011;44465;53.206;-6.106;2023-12-14T02:56:58;0.90;;;0.85;;
58685;SDS011;44465;53.206;-6.106;2023-12-14T02:59:23;1.10;;;1.00;;
58685;SDS011;44465;53.206;-6.106;2023-12-14T03:01:49;1.38;;;1.13;;
58685;SDS011;44465;53.206;-6.106;2023-12-14T03:04:14;1.85;;;1.20;;
58685;SDS011;44465;53.206;-6.106;2023-12-14T03:06:40;1.38;;;0.90;;
58685;SDS011;44465;53.206;-6.106;2023-12-14T03:09:05;0.80;;;0.80;;
58685;SDS011;44465;53.206;-6.106;2023-12-14T03:11:31;1.58;;;0.70;;
58685;SDS011;44465;53.206;-6.106;2023-12-14T03:13:56;1.27;;;0.80;;
58685;SDS011;44465;53.206;-6.106;2023-12-14T03:16:21;1.10;;;0.77;;
58685;SDS011;44465;53.206;-6.106;2023-12-14T03:18:47;0.60;;;0.60;;
58685;SDS011;44465;53.206;-6.106;2023-12-14T03:21:17;1.88;;;0.95;;
58685;SDS011;44465;53.206;-6.106;2023-12-14T03:23:43;1.70;;;0.90;;
58685;SDS011;44465;53.206;-6.106;2023-12-14T03:26:08;1.05;;;0.90;;
58685;SDS011;44465;53.206;-6.106;2023-12-14T03:28:34;1.15;;;0.90;;
58685;SDS011;44465;53.206;-6.106;2023-12-14T03:31:00;1.30;;;1.15;;
58685;SDS011;44465;53.206;-6.106;2023-12-14T03:33:25;2.83;;;0.98;;
58685;SDS011;44465;53.206;-6.106;2023-12-14T03:35:51;1.20;;;0.80;;
58685;SDS011;44465;53.206;-6.106;2023-12-14T03:38:16;1.17;;;1.00;;
58685;SDS011;44465;53.206;-6.106;2023-12-14T03:40:42;2.08;;;0.77;;
58685;SDS011;44465;53.206;-6.106;2023-12-14T03:43:07;1.27;;;1.05;;
58685;SDS011;44465;53.206;-6.106;2023-12-14T03:45:33;0.80;;;0.80;;
58685;SDS011;44465;53.206;-6.106;2023-12-14T03:47:58;1.73;;;1.10;;
58685;SDS011;44465;53.206;-6.106;2023-12-14T03:50:24;0.73;;;0.73;;
58685;SDS011;44465;53.206;-6.106;2023-12-14T03:52:49;1.17;;;0.80;;
58685;SDS011;44465;53.206;-6.106;2023-12-14T03:55:15;0.73;;;0.73;;
58685;SDS011;44465;53.206;-6.106;2023-12-14T03:57:40;0.98;;;0.80;;
58685;SDS011;44465;53.206;-6.106;2023-12-14T04:00:09;1.10;;;0.85;;
58685;SDS011;44465;53.206;-6.106;2023-12-14T04:02:35;0.80;;;0.80;;
58685;SDS011;44465;53.206;-6.106;2023-12-14T04:05:00;0.90;;;0.90;;
58685;SDS011;44465;53.206;-6.106;2023-12-14T04:07:26;0.90;;;0.75;;
58685;SDS011;44465;53.206;-6.106;2023-12-14T04:09:51;0.88;;;0.70;;
58685;SDS011;44465;53.206;-6.106;2023-12-14T04:12:17;0.85;;;0.85;;
58685;SDS011;44465;53.206;-6.106;2023-12-14T04:14:43;1.15;;;0.98;;
58685;SDS011;44465;53.206;-6.106;2023-12-14T04:17:10;2.22;;;1.00;;
58685;SDS011;44465;53.206;-6.106;2023-12-14T04:19:37;1.05;;;0.80;;
58685;SDS011;44465;53.206;-6.106;2023-12-14T04:22:03;0.85;;;0.75;;
58685;SDS011;44465;53.206;-6.106;2023-12-14T04:24:29;0.88;;;0.80;;
58685;SDS011;44465;53.206;-6.106;2023-12-14T04:26:55;0.80;;;0.80;;
58685;SDS011;44465;53.206;-6.106;2023-12-14T04:29:20;1.40;;;0.88;;
58685;SDS011;44465;53.206;-6.106;2023-12-14T04:31:46;0.73;;;0.65;;
58685;SDS011;44465;53.206;-6.106;2023-12-14T04:34:11;1.10;;;0.88;;
58685;SDS011;44465;53.206;-6.106;2023-12-14T04:36:41;2.05;;;0.82;;
58685;SDS011;44465;53.206;-6.106;2023-12-14T04:39:07;1.05;;;0.93;;
58685;SDS011;44465;53.206;-6.106;2023-12-14T04:41:32;1.33;;;0.55;;
58685;SDS011;44465;53.206;-6.106;2023-12-14T04:43:58;0.90;;;0.90;;
58685;SDS011;44465;53.206;-6.106;2023-12-14T04:46:23;0.70;;;0.60;;
58685;SDS011;44465;53.206;-6.106;2023-12-14T04:48:49;1.02;;;0.60;;
58685;SDS011;44465;53.206;-6.106;2023-12-14T04:51:14;1.65;;;0.90;;
58685;SDS011;44465;53.206;-6.106;2023-12-14T04:53:40;0.50;;;0.50;;
58685;SDS011;44465;53.206;-6.106;2023-12-14T04:56:09;0.90;;;0.63;;
58685;SDS011;44465;53.206;-6.106;2023-12-14T04:58:35;0.55;;;0.52;;
58685;SDS011;44465;53.206;-6.106;2023-12-14T05:01:00;0.80;;;0.55;;
58685;SDS011;44465;53.206;-6.106;2023-12-14T05:03:26;0.68;;;0.68;;
58685;SDS011;44465;53.206;-6.106;2023-12-14T05:05:51;0.50;;;0.50;;
58685;SDS011;44465;53.206;-6.106;2023-12-14T05:08:16;1.08;;;0.57;;
58685;SDS011;44465;53.206;-6.106;2023-12-14T05:10:42;0.40;;;0.40;;
58685;SDS011;44465;53.206;-6.106;2023-12-14T05:13:07;1.02;;;0.50;;
58685;SDS011;44465;53.206;-6.106;2023-12-14T05:15:33;0.40;;;0.40;;
58685;SDS011;44465;53.206;-6.106;2023-12-14T05:17:59;1.00;;;0.60;;
58685;SDS011;44465;53.206;-6.106;2023-12-14T05:20:24;0.50;;;0.40;;
58685;SDS011;44465;53.206;-6.106;2023-12-14T05:22:50;0.70;;;0.70;;
58685;SDS011;44465;53.206;-6.106;2023-12-14T05:25:15;0.57;;;0.47;;
58685;SDS011;44465;53.206;-6.106;2023-12-14T05:27:41;0.47;;;0.47;;
58685;SDS011;44465;53.206;-6.106;2023-12-14T05:30:06;0.50;;;0.43;;
58685;SDS011;44465;53.206;-6.106;2023-12-14T05:32:32;0.52;;;0.52;;
58685;SDS011;44465;53.206;-6.106;2023-12-14T05:34:58;0.68;;;0.45;;
58685;SDS011;44465;53.206;-6.106;2023-12-14T05:37:24;1.20;;;0.50;;
58685;SDS011;44465;53.206;-6.106;2023-12-14T05:39:50;0.30;;;0.30;;
58685;SDS011;44465;53.206;-6.106;2023-12-14T05:42:16;0.50;;;0.40;;
58685;SDS011;44465;53.206;-6.106;2023-12-14T05:44:42;0.75;;;0.63;;
58685;SDS011;44465;53.206;-6.106;2023-12-14T05:47:09;0.60;;;0.60;;
58685;SDS011;44465;53.206;-6.106;2023-12-14T05:49:35;0.95;;;0.50;;
58685;SDS011;44465;53.206;-6.106;2023-12-14T05:52:00;1.13;;;0.57;;
58685;SDS011;44465;53.206;-6.106;2023-12-14T05:54:25;1.38;;;0.75;;
58685;SDS011;44465;53.206;-6.106;2023-12-14T05:56:51;0.90;;;0.60;;
58685;SDS011;44465;53.206;-6.106;2023-12-14T05:59:16;0.90;;;0.90;;
58685;SDS011;44465;53.206;-6.106;2023-12-14T06:01:42;1.15;;;0.68;;
58685;SDS011;44465;53.206;-6.106;2023-12-14T06:04:08;0.60;;;0.60;;
58685;SDS011;44465;53.206;-6.106;2023-12-14T06:06:34;0.60;;;0.50;;
58685;SDS011;44465;53.206;-6.106;2023-12-14T06:08:59;0.57;;;0.55;;
58685;SDS011;44465;53.206;-6.106;2023-12-14T06:11:25;2.25;;;0.50;;
58685;SDS011;44465;53.206;-6.106;2023-12-14T06:13:50;0.88;;;0.60;;
58685;SDS011;44465;53.206;-6.106;2023-12-14T06:16:16;0.52;;;0.40;;
58685;SDS011;44465;53.206;-6.106;2023-12-14T06:18:41;0.50;;;0.50;;
58685;SDS011;44465;53.206;-6.106;2023-12-14T06:21:08;1.70;;;0.77;;
58685;SDS011;44465;53.206;-6.106;2023-12-14T06:26:02;0.50;;;0.50;;
58685;SDS011;44465;53.206;-6.106;2023-12-14T06:28:29;2.30;;;0.63;;
58685;SDS011;44465;53.206;-6.106;2023-12-14T06:30:55;1.15;;;0.60;;
58685;SDS011;44465;53.206;-6.106;2023-12-14T06:33:21;0.45;;;0.40;;
58685;SDS011;44465;53.206;-6.106;2023-12-14T06:35:47;0.40;;;0.40;;
58685;SDS011;44465;53.206;-6.106;2023-12-14T06:38:12;1.05;;;0.60;;
58685;SDS011;44465;53.206;-6.106;2023-12-14T06:40:38;0.95;;;0.52;;
58685;SDS011;44465;53.206;-6.106;2023-12-14T06:43:04;1.02;;;0.70;;
58685;SDS011;44465;53.206;-6.106;2023-12-14T06:45:30;0.55;;;0.55;;
58685;SDS011;44465;53.206;-6.106;2023-12-14T06:47:56;2.50;;;0.80;;
58685;SDS011;44465;53.206;-6.106;2023-12-14T06:50:21;1.70;;;0.55;;
58685;SDS011;44465;53.206;-6.106;2023-12-14T06:52:47;2.55;;;0.60;;
58685;SDS011;44465;53.206;-6.106;2023-12-14T06:55:12;1.02;;;0.57;;
58685;SDS011;44465;53.206;-6.106;2023-12-14T06:57:42;0.90;;;0.60;;
58685;SDS011;44465;53.206;-6.106;2023-12-14T07:00:08;1.10;;;0.55;;
58685;SDS011;44465;53.206;-6.106;2023-12-14T07:02:34;0.90;;;0.70;;
58685;SDS011;44465;53.206;-6.106;2023-12-14T07:05:00;2.00;;;1.00;;
58685;SDS011;44465;53.206;-6.106;2023-12-14T07:07:25;3.13;;;1.10;;
58685;SDS011;44465;53.206;-6.106;2023-12-14T07:09:51;0.85;;;0.70;;
58685;SDS011;44465;53.206;-6.106;2023-12-14T07:12:16;1.10;;;0.70;;
58685;SDS011;44465;53.206;-6.106;2023-12-14T07:14:43;1.15;;;0.75;;
58685;SDS011;44465;53.206;-6.106;2023-12-14T07:17:08;2.05;;;1.48;;
58685;SDS011;44465;53.206;-6.106;2023-12-14T07:19:34;2.40;;;1.10;;
58685;SDS011;44465;53.206;-6.106;2023-12-14T07:22:00;2.58;;;1.15;;
58685;SDS011;44465;53.206;-6.106;2023-12-14T07:24:26;1.60;;;0.82;;
58685;SDS011;44465;53.206;-6.106;2023-12-14T07:26:51;0.93;;;0.73;;
58685;SDS011;44465;53.206;-6.106;2023-12-14T07:29:17;2.63;;;1.08;;
58685;SDS011;44465;53.206;-6.106;2023-12-14T07:31:42;1.35;;;0.85;;
58685;SDS011;44465;53.206;-6.106;2023-12-14T07:34:08;3.20;;;0.73;;
58685;SDS011;44465;53.206;-6.106;2023-12-14T07:36:33;1.52;;;0.80;;
58685;SDS011;44465;53.206;-6.106;2023-12-14T07:38:59;2.25;;;0.80;;
58685;SDS011;44465;53.206;-6.106;2023-12-14T07:41:26;3.27;;;1.00;;
58685;SDS011;44465;53.206;-6.106;2023-12-14T07:43:55;2.15;;;1.00;;
58685;SDS011;44465;53.206;-6.106;2023-12-14T07:46:20;2.58;;;1.10;;
58685;SDS011;44465;53.206;-6.106;2023-12-14T07:48:46;2.58;;;1.05;;
58685;SDS011;44465;53.206;-6.106;2023-12-14T07:51:12;1.85;;;1.00;;
58685;SDS011;44465;53.206;-6.106;2023-12-14T07:53:38;2.47;;;1.02;;
58685;SDS011;44465;53.206;-6.106;2023-12-14T07:56:03;2.78;;;1.17;;
58685;SDS011;44465;53.206;-6.106;2023-12-14T07:58:29;2.60;;;0.88;;
58685;SDS011;44465;53.206;-6.106;2023-12-14T08:00:55;4.35;;;1.40;;
58685;SDS011;44465;53.206;-6.106;2023-12-14T08:03:21;2.70;;;1.10;;
58685;SDS011;44465;53.206;-6.106;2023-12-14T08:05:47;3.33;;;0.90;;
58685;SDS011;44465;53.206;-6.106;2023-12-14T08:08:12;3.45;;;1.35;;
58685;SDS011;44465;53.206;-6.106;2023-12-14T08:10:38;2.20;;;0.95;;
58685;SDS011;44465;53.206;-6.106;2023-12-14T08:13:03;3.47;;;1.25;;
58685;SDS011;44465;53.206;-6.106;2023-12-14T08:15:28;3.97;;;1.38;;
58685;SDS011;44465;53.206;-6.106;2023-12-14T08:17:55;2.08;;;1.00;;
58685;SDS011;44465;53.206;-6.106;2023-12-14T08:20:20;2.60;;;0.98;;
58685;SDS011;44465;53.206;-6.106;2023-12-14T08:22:46;3.00;;;1.58;;
58685;SDS011;44465;53.206;-6.106;2023-12-14T08:25:12;3.72;;;1.30;;
58685;SDS011;44465;53.206;-6.106;2023-12-14T08:27:39;2.97;;;1.17;;
58685;SDS011;44465;53.206;-6.106;2023-12-14T08:30:05;2.72;;;1.38;;
58685;SDS011;44465;53.206;-6.106;2023-12-14T08:32:31;4.40;;;1.38;;
58685;SDS011;44465;53.206;-6.106;2023-12-14T08:34:56;2.42;;;1.05;;
58685;SDS011;44465;53.206;-6.106;2023-12-14T08:37:22;4.50;;;2.17;;
58685;SDS011;44465;53.206;-6.106;2023-12-14T08:39:47;3.40;;;1.23;;
58685;SDS011;44465;53.206;-6.106;2023-12-14T08:42:13;3.92;;;1.60;;
58685;SDS011;44465;53.206;-6.106;2023-12-14T08:44:39;3.42;;;1.52;;
58685;SDS011;44465;53.206;-6.106;2023-12-14T08:47:05;3.53;;;1.35;;
58685;SDS011;44465;53.206;-6.106;2023-12-14T08:49:30;2.25;;;1.40;;
58685;SDS011;44465;53.206;-6.106;2023-12-14T08:51:56;3.38;;;1.70;;
58685;SDS011;44465;53.206;-6.106;2023-12-14T08:54:22;3.53;;;1.30;;
58685;SDS011;44465;53.206;-6.106;2023-12-14T08:56:47;3.72;;;1.25;;
58685;SDS011;44465;53.206;-6.106;2023-12-14T08:59:13;3.60;;;1.73;;
58685;SDS011;44465;53.206;-6.106;2023-12-14T09:01:38;3.70;;;1.50;;
58685;SDS011;44465;53.206;-6.106;2023-12-14T09:04:04;4.20;;;1.45;;
58685;SDS011;44465;53.206;-6.106;2023-12-14T09:06:29;3.30;;;1.08;;
58685;SDS011;44465;53.206;-6.106;2023-12-14T09:08:55;5.40;;;1.67;;
58685;SDS011;44465;53.206;-6.106;2023-12-14T09:11:21;4.15;;;1.15;;
58685;SDS011;44465;53.206;-6.106;2023-12-14T09:13:46;2.10;;;1.17;;
58685;SDS011;44465;53.206;-6.106;2023-12-14T09:16:11;3.25;;;1.50;;
58685;SDS011;44465;53.206;-6.106;2023-12-14T09:18:37;7.15;;;1.65;;
58685;SDS011;44465;53.206;-6.106;2023-12-14T09:21:03;5.55;;;1.30;;
58685;SDS011;44465;53.206;-6.106;2023-12-14T09:23:29;3.42;;;1.58;;
58685;SDS011;44465;53.206;-6.106;2023-12-14T09:25:55;2.47;;;1.25;;
58685;SDS011;44465;53.206;-6.106;2023-12-14T09:28:21;2.38;;;1.52;;
58685;SDS011;44465;53.206;-6.106;2023-12-14T09:30:47;4.35;;;1.40;;
58685;SDS011;44465;53.206;-6.106;2023-12-14T09:33:12;6.82;;;1.73;;
58685;SDS011;44465;53.206;-6.106;2023-12-14T09:35:38;7.53;;;1.70;;
58685;SDS011;44465;53.206;-6.106;2023-12-14T09:38:04;4.30;;;1.42;;
58685;SDS011;44465;53.206;-6.106;2023-12-14T09:40:31;3.55;;;1.40;;
58685;SDS011;44465;53.206;-6.106;2023-12-14T09:42:56;3.47;;;1.60;;
58685;SDS011;44465;53.206;-6.106;2023-12-14T09:45:23;5.53;;;1.52;;
58685;SDS011;44465;53.206;-6.106;2023-12-14T09:47:52;5.13;;;1.55;;
58685;SDS011;44465;53.206;-6.106;2023-12-14T09:50:19;5.45;;;1.85;;
58685;SDS011;44465;53.206;-6.106;2023-12-14T09:52:45;4.55;;;1.35;;
58685;SDS011;44465;53.206;-6.106;2023-12-14T09:55:14;6.65;;;2.00;;
58685;SDS011;44465;53.206;-6.106;2023-12-14T09:57:40;4.07;;;1.45;;
58685;SDS011;44465;53.206;-6.106;2023-12-14T10:00:05;3.42;;;1.48;;
58685;SDS011;44465;53.206;-6.106;2023-12-14T10:02:35;3.92;;;1.40;;
58685;SDS011;44465;53.206;-6.106;2023-12-14T10:05:00;3.28;;;1.25;;
58685;SDS011;44465;53.206;-6.106;2023-12-14T10:07:26;3.97;;;1.55;;
58685;SDS011;44465;53.206;-6.106;2023-12-14T10:09:51;4.15;;;1.27;;
58685;SDS011;44465;53.206;-6.106;2023-12-14T10:12:18;5.18;;;1.58;;
58685;SDS011;44465;53.206;-6.106;2023-12-14T10:14:44;3.10;;;1.60;;
58685;SDS011;44465;53.206;-6.106;2023-12-14T10:17:28;2.88;;;1.38;;
58685;SDS011;44465;53.206;-6.106;2023-12-14T10:19:57;5.30;;;1.38;;
58685;SDS011;44465;53.206;-6.106;2023-12-14T10:22:22;4.65;;;1.65;;
58685;SDS011;44465;53.206;-6.106;2023-12-14T10:24:53;3.22;;;1.33;;
58685;SDS011;44465;53.206;-6.106;2023-12-14T10:27:18;4.30;;;1.70;;
58685;SDS011;44465;53.206;-6.106;2023-12-14T10:29:45;4.75;;;1.90;;
58685;SDS011;44465;53.206;-6.106;2023-12-14T10:32:11;4.15;;;1.45;;
58685;SDS011;44465;53.206;-6.106;2023-12-14T10:34:37;4.88;;;1.58;;
58685;SDS011;44465;53.206;-6.106;2023-12-14T10:37:04;4.30;;;1.57;;
58685;SDS011;44465;53.206;-6.106;2023-12-14T10:39:31;4.57;;;1.50;;
58685;SDS011;44465;53.206;-6.106;2023-12-14T10:41:59;5.55;;;2.10;;
58685;SDS011;44465;53.206;-6.106;2023-12-14T10:44:27;7.53;;;2.65;;
58685;SDS011;44465;53.206;-6.106;2023-12-14T10:46:57;5.80;;;1.92;;
58685;SDS011;44465;53.206;-6.106;2023-12-14T10:49:24;7.15;;;1.92;;
58685;SDS011;44465;53.206;-6.106;2023-12-14T10:51:51;7.57;;;1.60;;
58685;SDS011;44465;53.206;-6.106;2023-12-14T10:54:22;5.47;;;1.45;;
58685;SDS011;44465;53.206;-6.106;2023-12-14T10:56:49;4.70;;;1.75;;
58685;SDS011;44465;53.206;-6.106;2023-12-14T10:59:15;4.78;;;2.13;;
58685;SDS011;44465;53.206;-6.106;2023-12-14T11:01:42;9.10;;;1.95;;
58685;SDS011;44465;53.206;-6.106;2023-12-14T11:04:07;5.38;;;1.70;;
58685;SDS011;44465;53.206;-6.106;2023-12-14T11:06:38;9.35;;;2.10;;
58685;SDS011;44465;53.206;-6.106;2023-12-14T11:09:05;5.90;;;2.08;;
58685;SDS011;44465;53.206;-6.106;2023-12-14T11:14:29;4.30;;;1.52;;
58685;SDS011;44465;53.206;-6.106;2023-12-14T11:17:01;4.28;;;1.80;;
58685;SDS011;44465;53.206;-6.106;2023-12-14T11:19:31;7.07;;;2.25;;
58685;SDS011;44465;53.206;-6.106;2023-12-14T11:24:32;5.80;;;1.77;;
58685;SDS011;44465;53.206;-6.106;2023-12-14T11:26:59;5.47;;;1.77;;
58685;SDS011;44465;53.206;-6.106;2023-12-14T11:29:29;7.68;;;2.28;;
58685;SDS011;44465;53.206;-6.106;2023-12-14T11:31:55;8.57;;;1.95;;
58685;SDS011;44465;53.206;-6.106;2023-12-14T11:34:23;5.32;;;2.33;;
58685;SDS011;44465;53.206;-6.106;2023-12-14T11:36:49;3.35;;;1.30;;
58685;SDS011;44465;53.206;-6.106;2023-12-14T11:39:15;6.28;;;2.50;;
58685;SDS011;44465;53.206;-6.106;2023-12-14T11:41:40;4.28;;;2.00;;
58685;SDS011;44465;53.206;-6.106;2023-12-14T11:44:06;5.53;;;1.88;;
58685;SDS011;44465;53.206;-6.106;2023-12-14T11:46:32;5.22;;;1.77;;
58685;SDS011;44465;53.206;-6.106;2023-12-14T11:48:57;3.08;;;1.40;;
58685;SDS011;44465;53.206;-6.106;2023-12-14T11:51:23;5.53;;;1.63;;
58685;SDS011;44465;53.206;-6.106;2023-12-14T11:53:51;4.75;;;1.60;;
58685;SDS011;44465;53.206;-6.106;2023-12-14T11:56:17;5.45;;;1.60;;
58685;SDS011;44465;53.206;-6.106;2023-12-14T11:58:43;6.18;;;1.60;;
58685;SDS011;44465;53.206;-6.106;2023-12-14T12:01:13;5.57;;;1.70;;
58685;SDS011;44465;53.206;-6.106;2023-12-14T12:03:39;5.50;;;1.90;;
58685;SDS011;44465;53.206;-6.106;2023-12-14T12:06:05;4.85;;;1.63;;
58685;SDS011;44465;53.206;-6.106;2023-12-14T12:08:32;4.80;;;2.00;;
58685;SDS011;44465;53.206;-6.106;2023-12-14T12:11:05;6.72;;;2.33;;
58685;SDS011;44465;53.206;-6.106;2023-12-14T12:13:34;5.75;;;1.85;;
58685;SDS011;44465;53.206;-6.106;2023-12-14T12:15:59;5.30;;;1.73;;
58685;SDS011;44465;53.206;-6.106;2023-12-14T12:18:25;4.72;;;1.77;;
58685;SDS011;44465;53.206;-6.106;2023-12-14T12:20:51;3.90;;;1.60;;
58685;SDS011;44465;53.206;-6.106;2023-12-14T12:23:18;4.90;;;1.40;;
58685;SDS011;44465;53.206;-6.106;2023-12-14T12:25:43;6.75;;;1.92;;
58685;SDS011;44465;53.206;-6.106;2023-12-14T12:28:09;5.05;;;1.95;;
58685;SDS011;44465;53.206;-6.106;2023-12-14T12:30:35;4.28;;;2.28;;
58685;SDS011;44465;53.206;-6.106;2023-12-14T12:33:00;3.47;;;1.67;;
58685;SDS011;44465;53.206;-6.106;2023-12-14T12:35:26;5.65;;;1.58;;
58685;SDS011;44465;53.206;-6.106;2023-12-14T12:37:52;9.02;;;2.20;;
58685;SDS011;44465;53.206;-6.106;2023-12-14T12:40:20;6.22;;;2.03;;
58685;SDS011;44465;53.206;-6.106;2023-12-14T12:42:47;6.65;;;1.70;;
58685;SDS011;44465;53.206;-6.106;2023-12-14T12:45:16;6.57;;;2.28;;
58685;SDS011;44465;53.206;-6.106;2023-12-14T12:47:53;6.43;;;2.60;;
58685;SDS011;44465;53.206;-6.106;2023-12-14T12:50:19;7.18;;;2.20;;
58685;SDS011;44465;53.206;-6.106;2023-12-14T12:52:45;5.78;;;1.75;;
58685;SDS011;44465;53.206;-6.106;2023-12-14T12:55:13;4.25;;;1.50;;
58685;SDS011;44465;53.206;-6.106;2023-12-14T12:57:39;8.32;;;2.40;;
58685;SDS011;44465;53.206;-6.106;2023-12-14T13:00:07;8.23;;;1.90;;
58685;SDS011;44465;53.206;-6.106;2023-12-14T13:02:38;7.35;;;2.33;;
58685;SDS011;44465;53.206;-6.106;2023-12-14T13:05:05;4.25;;;1.52;;
58685;SDS011;44465;53.206;-6.106;2023-12-14T13:07:32;3.28;;;1.60;;
58685;SDS011;44465;53.206;-6.106;2023-12-14T13:09:58;6.82;;;2.10;;
58685;SDS011;44465;53.206;-6.106;2023-12-14T13:12:24;4.65;;;1.73;;
58685;SDS011;44465;53.206;-6.106;2023-12-14T13:14:49;4.90;;;1.63;;
58685;SDS011;44465;53.206;-6.106;2023-12-14T13:17:14;5.45;;;1.90;;
58685;SDS011;44465;53.206;-6.106;2023-12-14T13:19:43;5.82;;;1.98;;
58685;SDS011;44465;53.206;-6.106;2023-12-14T13:22:09;5.05;;;1.80;;
58685;SDS011;44465;53.206;-6.106;2023-12-14T13:24:36;4.32;;;2.17;;
58685;SDS011;44465;53.206;-6.106;2023-12-14T13:27:02;3.92;;;1.63;;
58685;SDS011;44465;53.206;-6.106;2023-12-14T13:29:29;6.18;;;2.72;;
58685;SDS011;44465;53.206;-6.106;2023-12-14T13:31:57;6.20;;;1.95;;
58685;SDS011;44465;53.206;-6.106;2023-12-14T13:34:22;5.75;;;1.75;;
58685;SDS011;44465;53.206;-6.106;2023-12-14T13:36:48;4.10;;;1.98;;
58685;SDS011;44465;53.206;-6.106;2023-12-14T13:39:13;5.53;;;2.08;;
58685;SDS011;44465;53.206;-6.106;2023-12-14T13:41:39;4.68;;;1.52;;
58685;SDS011;44465;53.206;-6.106;2023-12-14T13:44:04;4.97;;;1.95;;
58685;SDS011;44465;53.206;-6.106;2023-12-14T13:46:30;5.40;;;1.60;;
58685;SDS011;44465;53.206;-6.106;2023-12-14T13:48:55;5.38;;;1.90;;
58685;SDS011;44465;53.206;-6.106;2023-12-14T13:51:21;4.80;;;1.65;;
58685;SDS011;44465;53.206;-6.106;2023-12-14T13:53:47;6.18;;;2.00;;
58685;SDS011;44465;53.206;-6.106;2023-12-14T13:56:12;7.55;;;2.03;;
58685;SDS011;44465;53.206;-6.106;2023-12-14T13:58:38;4.60;;;2.13;;
58685;SDS011;44465;53.206;-6.106;2023-12-14T14:01:04;3.83;;;1.50;;
58685;SDS011;44465;53.206;-6.106;2023-12-14T14:03:33;5.22;;;1.70;;
58685;SDS011;44465;53.206;-6.106;2023-12-14T14:05:59;5.30;;;2.33;;
58685;SDS011;44465;53.206;-6.106;2023-12-14T14:08:24;14.27;;;4.65;;
58685;SDS011;44465;53.206;-6.106;2023-12-14T14:10:49;6.25;;;2.22;;
58685;SDS011;44465;53.206;-6.106;2023-12-14T14:13:15;10.05;;;2.78;;
58685;SDS011;44465;53.206;-6.106;2023-12-14T14:15:40;9.27;;;2.15;;
58685;SDS011;44465;53.206;-6.106;2023-12-14T14:18:06;9.13;;;2.50;;
58685;SDS011;44465;53.206;-6.106;2023-12-14T14:20:31;7.00;;;2.28;;
58685;SDS011;44465;53.206;-6.106;2023-12-14T14:22:57;11.90;;;3.13;;
58685;SDS011;44465;53.206;-6.106;2023-12-14T14:25:24;10.02;;;2.67;;
58685;SDS011;44465;53.206;-6.106;2023-12-14T14:27:50;9.52;;;2.20;;
58685;SDS011;44465;53.206;-6.106;2023-12-14T14:30:16;9.50;;;3.33;;
58685;SDS011;44465;53.206;-6.106;2023-12-14T14:32:41;8.20;;;2.10;;
58685;SDS011;44465;53.206;-6.106;2023-12-14T14:35:07;7.00;;;1.85;;
58685;SDS011;44465;53.206;-6.106;2023-12-14T14:37:33;5.68;;;1.95;;